sensor_id;sensor_type;location;lat;lon;timestamp;temperature;humidity
573;DHT22;271;51.114;13.780;2023-07-13T00:01:16;22.30;1.00
573;DHT22;271;51.114;13.780;2023-07-13T00:04:04;22.30;1.00
573;DHT22;271;51.114;13.780;2023-07-13T00:06:52;22.20;1.00
573;DHT22;271;51.114;13.780;2023-07-13T00:09:41;22.20;1.00
573;DHT22;271;51.114;13.780;2023-07-13T00:12:32;22.20;1.00
573;DHT22;271;51.114;13.780;2023-07-13T00:15:22;22.10;1.00
573;DHT22;271;51.114;13.780;2023-07-13T00:18:10;22.10;1.00
573;DHT22;271;51.114;13.780;2023-07-13T00:20:57;22.00;1.00
573;DHT22;271;51.114;13.780;2023-07-13T00:23:51;22.10;1.00
573;DHT22;271;51.114;13.780;2023-07-13T00:26:40;22.00;1.00
573;DHT22;271;51.114;13.780;2023-07-13T00:29:32;22.00;1.00
573;DHT22;271;51.114;13.780;2023-07-13T00:32:20;21.90;1.00
573;DHT22;271;51.114;13.780;2023-07-13T00:35:08;21.80;1.00
573;DHT22;271;51.114;13.780;2023-07-13T00:37:56;21.70;1.00
573;DHT22;271;51.114;13.780;2023-07-13T00:40:44;21.70;1.00
573;DHT22;271;51.114;13.780;2023-07-13T00:43:33;21.60;1.00
573;DHT22;271;51.114;13.780;2023-07-13T00:46:24;21.70;1.00
573;DHT22;271;51.114;13.780;2023-07-13T00:49:15;21.60;1.00
573;DHT22;271;51.114;13.780;2023-07-13T00:52:05;21.60;1.00
573;DHT22;271;51.114;13.780;2023-07-13T00:54:53;21.60;1.00
573;DHT22;271;51.114;13.780;2023-07-13T00:57:42;21.50;1.00
573;DHT22;271;51.114;13.780;2023-07-13T01:00:32;21.50;1.00
573;DHT22;271;51.114;13.780;2023-07-13T01:03:22;21.50;1.00
573;DHT22;271;51.114;13.780;2023-07-13T01:06:10;21.50;1.00
573;DHT22;271;51.114;13.780;2023-07-13T01:08:58;21.40;1.00
573;DHT22;271;51.114;13.780;2023-07-13T01:11:47;21.20;1.00
573;DHT22;271;51.114;13.780;2023-07-13T01:14:34;21.30;1.00
573;DHT22;271;51.114;13.780;2023-07-13T01:17:24;21.20;1.00
573;DHT22;271;51.114;13.780;2023-07-13T01:20:12;21.00;1.00
573;DHT22;271;51.114;13.780;2023-07-13T01:23:01;20.90;1.00
573;DHT22;271;51.114;13.780;2023-07-13T01:25:49;20.90;1.00
573;DHT22;271;51.114;13.780;2023-07-13T01:28:37;20.90;1.00
573;DHT22;271;51.114;13.780;2023-07-13T01:31:25;20.70;1.00
573;DHT22;271;51.114;13.780;2023-07-13T01:34:13;20.30;1.00
573;DHT22;271;51.114;13.780;2023-07-13T01:37:01;20.10;1.00
573;DHT22;271;51.114;13.780;2023-07-13T01:39:50;20.10;1.00
573;DHT22;271;51.114;13.780;2023-07-13T01:42:38;20.10;1.00
573;DHT22;271;51.114;13.780;2023-07-13T01:45:26;20.20;1.00
573;DHT22;271;51.114;13.780;2023-07-13T01:48:14;20.30;1.00
573;DHT22;271;51.114;13.780;2023-07-13T01:51:01;20.30;1.00
573;DHT22;271;51.114;13.780;2023-07-13T01:53:49;20.30;1.00
573;DHT22;271;51.114;13.780;2023-07-13T01:56:38;20.30;1.00
573;DHT22;271;51.114;13.780;2023-07-13T01:59:28;20.10;1.00
573;DHT22;271;51.114;13.780;2023-07-13T02:02:15;19.90;1.00
573;DHT22;271;51.114;13.780;2023-07-13T02:05:04;19.90;1.00
573;DHT22;271;51.114;13.780;2023-07-13T02:07:51;19.90;1.00
573;DHT22;271;51.114;13.780;2023-07-13T02:10:39;20.00;1.00
573;DHT22;271;51.114;13.780;2023-07-13T02:13:28;19.90;1.00
573;DHT22;271;51.114;13.780;2023-07-13T02:16:16;19.80;1.00
573;DHT22;271;51.114;13.780;2023-07-13T02:19:04;19.80;1.00
573;DHT22;271;51.114;13.780;2023-07-13T02:21:52;19.80;1.00
573;DHT22;271;51.114;13.780;2023-07-13T02:24:40;19.60;1.00
573;DHT22;271;51.114;13.780;2023-07-13T02:27:28;19.50;1.00
573;DHT22;271;51.114;13.780;2023-07-13T02:30:17;19.50;1.00
573;DHT22;271;51.114;13.780;2023-07-13T02:33:05;19.60;1.00
573;DHT22;271;51.114;13.780;2023-07-13T02:35:52;19.60;1.00
573;DHT22;271;51.114;13.780;2023-07-13T02:38:42;19.70;1.00
573;DHT22;271;51.114;13.780;2023-07-13T02:41:29;19.70;1.00
573;DHT22;271;51.114;13.780;2023-07-13T02:44:17;19.80;1.00
573;DHT22;271;51.114;13.780;2023-07-13T02:47:07;19.70;1.00
573;DHT22;271;51.114;13.780;2023-07-13T02:49:54;19.60;1.00
573;DHT22;271;51.114;13.780;2023-07-13T02:52:42;19.50;1.00
573;DHT22;271;51.114;13.780;2023-07-13T02:55:30;19.40;1.00
573;DHT22;271;51.114;13.780;2023-07-13T02:58:17;19.10;1.00
573;DHT22;271;51.114;13.780;2023-07-13T03:01:08;18.90;1.00
573;DHT22;271;51.114;13.780;2023-07-13T03:03:57;19.00;1.00
573;DHT22;271;51.114;13.780;2023-07-13T03:06:45;19.10;1.00
573;DHT22;271;51.114;13.780;2023-07-13T03:09:34;19.20;1.00
573;DHT22;271;51.114;13.780;2023-07-13T03:12:22;19.10;1.00
573;DHT22;271;51.114;13.780;2023-07-13T03:15:10;19.00;1.00
573;DHT22;271;51.114;13.780;2023-07-13T03:17:58;19.00;1.00
573;DHT22;271;51.114;13.780;2023-07-13T03:20:50;18.90;1.00
573;DHT22;271;51.114;13.780;2023-07-13T03:23:38;18.90;1.00
573;DHT22;271;51.114;13.780;2023-07-13T03:26:25;19.00;1.00
573;DHT22;271;51.114;13.780;2023-07-13T03:29:13;18.90;1.00
573;DHT22;271;51.114;13.780;2023-07-13T03:32:01;18.90;1.00
573;DHT22;271;51.114;13.780;2023-07-13T03:34:48;19.00;1.00
573;DHT22;271;51.114;13.780;2023-07-13T03:37:38;19.10;1.00
573;DHT22;271;51.114;13.780;2023-07-13T03:40:28;19.10;1.00
573;DHT22;271;51.114;13.780;2023-07-13T03:43:16;19.10;1.00
573;DHT22;271;51.114;13.780;2023-07-13T03:46:04;19.10;1.00
573;DHT22;271;51.114;13.780;2023-07-13T03:48:51;19.10;1.00
573;DHT22;271;51.114;13.780;2023-07-13T03:51:39;19.10;1.00
573;DHT22;271;51.114;13.780;2023-07-13T03:54:28;19.10;1.00
573;DHT22;271;51.114;13.780;2023-07-13T03:57:18;19.10;1.00
573;DHT22;271;51.114;13.780;2023-07-13T04:00:07;19.10;1.00
573;DHT22;271;51.114;13.780;2023-07-13T04:02:55;19.20;1.00
573;DHT22;271;51.114;13.780;2023-07-13T04:05:42;19.30;1.00
573;DHT22;271;51.114;13.780;2023-07-13T04:08:34;19.30;1.00
573;DHT22;271;51.114;13.780;2023-07-13T04:11:25;19.40;1.00
573;DHT22;271;51.114;13.780;2023-07-13T04:14:14;19.40;1.00
573;DHT22;271;51.114;13.780;2023-07-13T04:17:01;19.40;1.00
573;DHT22;271;51.114;13.780;2023-07-13T04:19:49;19.50;1.00
573;DHT22;271;51.114;13.780;2023-07-13T04:22:37;19.60;1.00
573;DHT22;271;51.114;13.780;2023-07-13T04:25:25;19.80;1.00
573;DHT22;271;51.114;13.780;2023-07-13T04:28:14;19.80;1.00
573;DHT22;271;51.114;13.780;2023-07-13T04:31:02;19.80;1.00
573;DHT22;271;51.114;13.780;2023-07-13T04:33:49;19.80;1.00
573;DHT22;271;51.114;13.780;2023-07-13T04:36:38;19.80;1.00
573;DHT22;271;51.114;13.780;2023-07-13T04:39:25;19.70;1.00
573;DHT22;271;51.114;13.780;2023-07-13T04:42:13;19.70;1.00
573;DHT22;271;51.114;13.780;2023-07-13T04:45:03;19.60;1.00
573;DHT22;271;51.114;13.780;2023-07-13T04:47:51;19.60;1.00
573;DHT22;271;51.114;13.780;2023-07-13T04:50:38;19.50;1.00
573;DHT22;271;51.114;13.780;2023-07-13T04:53:27;19.40;1.00
573;DHT22;271;51.114;13.780;2023-07-13T04:56:15;19.50;1.00
573;DHT22;271;51.114;13.780;2023-07-13T04:59:02;19.60;1.00
573;DHT22;271;51.114;13.780;2023-07-13T05:01:51;19.70;1.00
573;DHT22;271;51.114;13.780;2023-07-13T05:04:39;19.90;1.00
573;DHT22;271;51.114;13.780;2023-07-13T05:07:27;20.00;1.00
573;DHT22;271;51.114;13.780;2023-07-13T05:10:15;20.10;1.00
573;DHT22;271;51.114;13.780;2023-07-13T05:13:03;20.40;1.00
573;DHT22;271;51.114;13.780;2023-07-13T05:15:56;20.30;1.00
573;DHT22;271;51.114;13.780;2023-07-13T05:18:46;20.70;1.00
573;DHT22;271;51.114;13.780;2023-07-13T05:21:34;21.30;1.00
573;DHT22;271;51.114;13.780;2023-07-13T05:24:22;22.00;1.00
573;DHT22;271;51.114;13.780;2023-07-13T05:27:10;22.30;1.00
573;DHT22;271;51.114;13.780;2023-07-13T05:29:57;22.70;1.00
573;DHT22;271;51.114;13.780;2023-07-13T05:32:45;22.90;1.00
573;DHT22;271;51.114;13.780;2023-07-13T05:35:34;23.00;1.00
573;DHT22;271;51.114;13.780;2023-07-13T05:38:22;23.00;1.00
573;DHT22;271;51.114;13.780;2023-07-13T05:41:10;23.10;1.00
573;DHT22;271;51.114;13.780;2023-07-13T05:43:57;23.10;1.00
573;DHT22;271;51.114;13.780;2023-07-13T05:46:46;22.90;1.00
573;DHT22;271;51.114;13.780;2023-07-13T05:49:33;22.90;1.00
573;DHT22;271;51.114;13.780;2023-07-13T05:52:22;23.00;1.00
573;DHT22;271;51.114;13.780;2023-07-13T05:55:10;23.70;1.00
573;DHT22;271;51.114;13.780;2023-07-13T05:57:59;24.30;1.00
573;DHT22;271;51.114;13.780;2023-07-13T06:00:48;24.30;1.00
573;DHT22;271;51.114;13.780;2023-07-13T06:03:36;23.70;1.00
573;DHT22;271;51.114;13.780;2023-07-13T06:06:25;24.40;1.00
573;DHT22;271;51.114;13.780;2023-07-13T06:09:14;24.20;1.00
573;DHT22;271;51.114;13.780;2023-07-13T06:12:02;25.10;1.00
573;DHT22;271;51.114;13.780;2023-07-13T06:14:50;26.60;1.00
573;DHT22;271;51.114;13.780;2023-07-13T06:17:38;27.40;1.00
573;DHT22;271;51.114;13.780;2023-07-13T06:20:25;27.60;1.00
573;DHT22;271;51.114;13.780;2023-07-13T06:23:13;28.60;1.00
573;DHT22;271;51.114;13.780;2023-07-13T06:26:02;29.80;1.00
573;DHT22;271;51.114;13.780;2023-07-13T06:28:50;30.30;1.00
573;DHT22;271;51.114;13.780;2023-07-13T06:31:38;30.80;1.00
573;DHT22;271;51.114;13.780;2023-07-13T06:34:26;31.50;1.00
573;DHT22;271;51.114;13.780;2023-07-13T06:37:13;32.10;1.00
573;DHT22;271;51.114;13.780;2023-07-13T06:40:01;32.90;1.00
573;DHT22;271;51.114;13.780;2023-07-13T06:42:51;32.50;1.00
573;DHT22;271;51.114;13.780;2023-07-13T06:45:48;31.50;1.00
573;DHT22;271;51.114;13.780;2023-07-13T06:48:37;30.30;1.00
573;DHT22;271;51.114;13.780;2023-07-13T06:51:28;29.40;1.00
573;DHT22;271;51.114;13.780;2023-07-13T06:54:16;29.70;1.00
573;DHT22;271;51.114;13.780;2023-07-13T06:57:04;31.00;1.00
573;DHT22;271;51.114;13.780;2023-07-13T06:59:53;31.70;1.00
573;DHT22;271;51.114;13.780;2023-07-13T07:02:43;32.40;1.00
573;DHT22;271;51.114;13.780;2023-07-13T07:05:30;32.20;1.00
573;DHT22;271;51.114;13.780;2023-07-13T07:08:21;30.90;1.00
573;DHT22;271;51.114;13.780;2023-07-13T07:11:11;30.80;1.00
573;DHT22;271;51.114;13.780;2023-07-13T07:13:59;31.40;1.00
573;DHT22;271;51.114;13.780;2023-07-13T07:16:49;32.40;1.00
573;DHT22;271;51.114;13.780;2023-07-13T07:19:38;32.70;1.00
573;DHT22;271;51.114;13.780;2023-07-13T07:22:25;31.70;1.00
573;DHT22;271;51.114;13.780;2023-07-13T07:25:13;30.60;1.00
573;DHT22;271;51.114;13.780;2023-07-13T07:28:01;29.60;1.00
573;DHT22;271;51.114;13.780;2023-07-13T07:30:53;28.90;1.00
573;DHT22;271;51.114;13.780;2023-07-13T07:33:42;28.80;1.00
573;DHT22;271;51.114;13.780;2023-07-13T07:36:30;28.50;1.00
573;DHT22;271;51.114;13.780;2023-07-13T07:39:18;28.70;1.00
573;DHT22;271;51.114;13.780;2023-07-13T07:42:08;28.30;1.00
573;DHT22;271;51.114;13.780;2023-07-13T07:44:57;29.00;1.00
573;DHT22;271;51.114;13.780;2023-07-13T07:47:47;30.60;1.00
573;DHT22;271;51.114;13.780;2023-07-13T07:50:36;30.90;1.00
573;DHT22;271;51.114;13.780;2023-07-13T07:53:25;29.90;1.00
573;DHT22;271;51.114;13.780;2023-07-13T07:56:13;28.80;1.00
573;DHT22;271;51.114;13.780;2023-07-13T07:59:02;28.90;1.00
573;DHT22;271;51.114;13.780;2023-07-13T08:01:50;29.50;1.00
573;DHT22;271;51.114;13.780;2023-07-13T08:04:40;30.00;1.00
573;DHT22;271;51.114;13.780;2023-07-13T08:07:31;29.60;1.00
573;DHT22;271;51.114;13.780;2023-07-13T08:10:19;30.00;1.00
573;DHT22;271;51.114;13.780;2023-07-13T08:13:06;30.50;1.00
573;DHT22;271;51.114;13.780;2023-07-13T08:15:57;31.10;1.00
573;DHT22;271;51.114;13.780;2023-07-13T08:18:46;30.90;1.00
573;DHT22;271;51.114;13.780;2023-07-13T08:21:34;31.10;1.00
573;DHT22;271;51.114;13.780;2023-07-13T08:24:23;31.80;1.00
573;DHT22;271;51.114;13.780;2023-07-13T08:27:12;32.40;1.00
573;DHT22;271;51.114;13.780;2023-07-13T08:33:21;32.10;1.00
573;DHT22;271;51.114;13.780;2023-07-13T08:36:13;32.30;1.00
573;DHT22;271;51.114;13.780;2023-07-13T08:39:01;32.80;1.00
573;DHT22;271;51.114;13.780;2023-07-13T08:41:56;33.90;1.00
573;DHT22;271;51.114;13.780;2023-07-13T08:44:54;33.80;1.00
573;DHT22;271;51.114;13.780;2023-07-13T08:47:47;33.50;1.00
573;DHT22;271;51.114;13.780;2023-07-13T08:50:55;32.90;1.00
573;DHT22;271;51.114;13.780;2023-07-13T08:53:47;32.30;1.00
573;DHT22;271;51.114;13.780;2023-07-13T08:56:35;31.90;1.00
573;DHT22;271;51.114;13.780;2023-07-13T08:59:27;30.80;1.00
573;DHT22;271;51.114;13.780;2023-07-13T09:02:27;29.90;1.00
573;DHT22;271;51.114;13.780;2023-07-13T09:05:33;29.40;1.00
573;DHT22;271;51.114;13.780;2023-07-13T09:08:53;29.10;1.00
573;DHT22;271;51.114;13.780;2023-07-13T09:11:49;29.00;1.00
573;DHT22;271;51.114;13.780;2023-07-13T09:14:43;29.00;1.00
573;DHT22;271;51.114;13.780;2023-07-13T09:17:48;29.00;1.00
573;DHT22;271;51.114;13.780;2023-07-13T09:20:46;28.90;1.00
573;DHT22;271;51.114;13.780;2023-07-13T09:23:36;29.10;1.00
573;DHT22;271;51.114;13.780;2023-07-13T09:26:29;29.20;1.00
573;DHT22;271;51.114;13.780;2023-07-13T09:29:23;29.50;1.00
573;DHT22;271;51.114;13.780;2023-07-13T09:32:30;29.40;1.00
573;DHT22;271;51.114;13.780;2023-07-13T09:35:21;29.20;1.00
573;DHT22;271;51.114;13.780;2023-07-13T09:38:15;29.00;1.00
573;DHT22;271;51.114;13.780;2023-07-13T09:41:11;28.80;1.00
573;DHT22;271;51.114;13.780;2023-07-13T09:44:28;28.80;1.00
573;DHT22;271;51.114;13.780;2023-07-13T09:47:20;29.10;1.00
573;DHT22;271;51.114;13.780;2023-07-13T09:50:32;29.20;1.00
573;DHT22;271;51.114;13.780;2023-07-13T09:53:20;29.60;1.00
573;DHT22;271;51.114;13.780;2023-07-13T09:56:23;29.80;1.00
573;DHT22;271;51.114;13.780;2023-07-13T09:59:35;29.40;1.00
573;DHT22;271;51.114;13.780;2023-07-13T10:02:30;28.90;1.00
573;DHT22;271;51.114;13.780;2023-07-13T10:05:18;28.50;1.00
573;DHT22;271;51.114;13.780;2023-07-13T10:08:35;28.40;1.00
573;DHT22;271;51.114;13.780;2023-07-13T10:11:25;28.60;1.00
573;DHT22;271;51.114;13.780;2023-07-13T10:14:17;28.70;1.00
573;DHT22;271;51.114;13.780;2023-07-13T10:17:12;28.90;1.00
573;DHT22;271;51.114;13.780;2023-07-13T10:20:04;28.80;1.00
573;DHT22;271;51.114;13.780;2023-07-13T10:23:23;28.70;1.00
573;DHT22;271;51.114;13.780;2023-07-13T10:26:18;29.20;1.00
573;DHT22;271;51.114;13.780;2023-07-13T10:29:24;29.40;1.00
573;DHT22;271;51.114;13.780;2023-07-13T10:32:15;29.10;1.00
573;DHT22;271;51.114;13.780;2023-07-13T10:35:05;28.90;1.00
573;DHT22;271;51.114;13.780;2023-07-13T10:37:58;29.00;1.00
573;DHT22;271;51.114;13.780;2023-07-13T10:40:54;28.90;1.00
573;DHT22;271;51.114;13.780;2023-07-13T10:44:03;29.00;1.00
573;DHT22;271;51.114;13.780;2023-07-13T10:46:55;29.20;1.00
573;DHT22;271;51.114;13.780;2023-07-13T10:49:44;29.30;1.00
573;DHT22;271;51.114;13.780;2023-07-13T10:52:44;29.60;1.00
573;DHT22;271;51.114;13.780;2023-07-13T10:55:56;29.60;1.00
573;DHT22;271;51.114;13.780;2023-07-13T10:58:46;29.50;1.00
573;DHT22;271;51.114;13.780;2023-07-13T11:01:40;29.20;1.00
573;DHT22;271;51.114;13.780;2023-07-13T11:04:53;29.50;1.00
573;DHT22;271;51.114;13.780;2023-07-13T11:07:56;29.30;1.00
573;DHT22;271;51.114;13.780;2023-07-13T11:11:03;28.60;1.00
573;DHT22;271;51.114;13.780;2023-07-13T11:13:59;28.40;1.00
573;DHT22;271;51.114;13.780;2023-07-13T11:16:49;28.00;1.00
573;DHT22;271;51.114;13.780;2023-07-13T11:19:40;27.70;1.00
573;DHT22;271;51.114;13.780;2023-07-13T11:23:08;27.50;1.00
573;DHT22;271;51.114;13.780;2023-07-13T11:25:56;27.20;1.00
573;DHT22;271;51.114;13.780;2023-07-13T11:28:49;27.00;1.00
573;DHT22;271;51.114;13.780;2023-07-13T11:31:38;27.50;1.00
573;DHT22;271;51.114;13.780;2023-07-13T11:34:33;27.90;1.00
573;DHT22;271;51.114;13.780;2023-07-13T11:37:47;28.00;1.00
573;DHT22;271;51.114;13.780;2023-07-13T11:40:36;28.00;1.00
573;DHT22;271;51.114;13.780;2023-07-13T11:43:38;27.90;1.00
573;DHT22;271;51.114;13.780;2023-07-13T11:46:35;27.80;1.00
573;DHT22;271;51.114;13.780;2023-07-13T11:49:24;27.90;1.00
573;DHT22;271;51.114;13.780;2023-07-13T11:52:16;28.00;1.00
573;DHT22;271;51.114;13.780;2023-07-13T11:55:13;28.30;1.00
573;DHT22;271;51.114;13.780;2023-07-13T11:58:05;28.00;1.00
573;DHT22;271;51.114;13.780;2023-07-13T12:00:53;27.90;1.00
573;DHT22;271;51.114;13.780;2023-07-13T12:03:40;27.90;1.00
573;DHT22;271;51.114;13.780;2023-07-13T12:06:30;27.80;1.00
573;DHT22;271;51.114;13.780;2023-07-13T12:09:18;27.80;1.00
573;DHT22;271;51.114;13.780;2023-07-13T12:12:11;27.90;1.00
573;DHT22;271;51.114;13.780;2023-07-13T12:15:05;27.80;1.00
573;DHT22;271;51.114;13.780;2023-07-13T12:18:12;27.60;1.00
573;DHT22;271;51.114;13.780;2023-07-13T12:21:01;27.60;1.00
573;DHT22;271;51.114;13.780;2023-07-13T12:23:49;27.60;1.00
573;DHT22;271;51.114;13.780;2023-07-13T12:26:38;27.50;1.00
573;DHT22;271;51.114;13.780;2023-07-13T12:29:25;27.40;1.00
573;DHT22;271;51.114;13.780;2023-07-13T12:32:17;27.40;1.00
573;DHT22;271;51.114;13.780;2023-07-13T12:35:16;27.50;1.00
573;DHT22;271;51.114;13.780;2023-07-13T12:38:30;27.50;1.00
573;DHT22;271;51.114;13.780;2023-07-13T12:41:19;27.50;1.00
573;DHT22;271;51.114;13.780;2023-07-13T12:44:11;27.50;1.00
573;DHT22;271;51.114;13.780;2023-07-13T12:47:04;27.40;1.00
573;DHT22;271;51.114;13.780;2023-07-13T12:49:59;27.50;1.00
573;DHT22;271;51.114;13.780;2023-07-13T12:53:05;27.50;1.00
573;DHT22;271;51.114;13.780;2023-07-13T12:55:55;27.50;1.00
573;DHT22;271;51.114;13.780;2023-07-13T12:58:47;27.50;1.00
573;DHT22;271;51.114;13.780;2023-07-13T13:01:41;27.70;1.00
573;DHT22;271;51.114;13.780;2023-07-13T13:04:30;28.00;1.00
573;DHT22;271;51.114;13.780;2023-07-13T13:07:19;28.30;1.00
573;DHT22;271;51.114;13.780;2023-07-13T13:10:11;28.20;1.00
573;DHT22;271;51.114;13.780;2023-07-13T13:13:00;28.20;1.00
573;DHT22;271;51.114;13.780;2023-07-13T13:15:48;28.10;1.00
573;DHT22;271;51.114;13.780;2023-07-13T13:18:35;28.10;1.00
573;DHT22;271;51.114;13.780;2023-07-13T13:21:24;28.10;1.00
573;DHT22;271;51.114;13.780;2023-07-13T13:24:15;28.10;1.00
573;DHT22;271;51.114;13.780;2023-07-13T13:27:04;28.10;1.00
573;DHT22;271;51.114;13.780;2023-07-13T13:29:52;28.20;1.00
573;DHT22;271;51.114;13.780;2023-07-13T13:32:41;28.30;1.00
573;DHT22;271;51.114;13.780;2023-07-13T13:35:29;28.30;1.00
573;DHT22;271;51.114;13.780;2023-07-13T13:38:19;28.30;1.00
573;DHT22;271;51.114;13.780;2023-07-13T13:41:29;28.30;1.00
573;DHT22;271;51.114;13.780;2023-07-13T13:44:18;28.20;1.00
573;DHT22;271;51.114;13.780;2023-07-13T13:47:25;27.90;1.00
573;DHT22;271;51.114;13.780;2023-07-13T13:50:30;27.70;1.00
573;DHT22;271;51.114;13.780;2023-07-13T13:53:18;27.70;1.00
573;DHT22;271;51.114;13.780;2023-07-13T13:56:07;27.80;1.00
573;DHT22;271;51.114;13.780;2023-07-13T13:58:56;27.90;1.00
573;DHT22;271;51.114;13.780;2023-07-13T14:01:45;27.80;1.00
573;DHT22;271;51.114;13.780;2023-07-13T14:04:34;27.70;1.00
573;DHT22;271;51.114;13.780;2023-07-13T14:07:23;27.70;1.00
573;DHT22;271;51.114;13.780;2023-07-13T14:10:12;27.60;1.00
573;DHT22;271;51.114;13.780;2023-07-13T14:13:01;27.50;1.00
573;DHT22;271;51.114;13.780;2023-07-13T14:15:53;27.50;1.00
573;DHT22;271;51.114;13.780;2023-07-13T14:18:40;27.50;1.00
573;DHT22;271;51.114;13.780;2023-07-13T14:21:29;27.60;1.00
573;DHT22;271;51.114;13.780;2023-07-13T14:24:17;27.50;1.00
573;DHT22;271;51.114;13.780;2023-07-13T14:27:05;27.40;1.00
573;DHT22;271;51.114;13.780;2023-07-13T14:29:56;27.30;1.00
573;DHT22;271;51.114;13.780;2023-07-13T14:32:45;27.20;1.00
573;DHT22;271;51.114;13.780;2023-07-13T14:35:33;27.20;1.00
573;DHT22;271;51.114;13.780;2023-07-13T14:38:21;27.30;1.00
573;DHT22;271;51.114;13.780;2023-07-13T14:41:12;27.40;1.00
573;DHT22;271;51.114;13.780;2023-07-13T14:43:59;27.40;1.00
573;DHT22;271;51.114;13.780;2023-07-13T14:46:48;27.40;1.00
573;DHT22;271;51.114;13.780;2023-07-13T14:49:40;27.30;1.00
573;DHT22;271;51.114;13.780;2023-07-13T14:52:29;27.20;1.00
573;DHT22;271;51.114;13.780;2023-07-13T14:55:18;27.20;1.00
573;DHT22;271;51.114;13.780;2023-07-13T14:58:06;27.20;1.00
573;DHT22;271;51.114;13.780;2023-07-13T15:00:54;27.10;1.00
573;DHT22;271;51.114;13.780;2023-07-13T15:03:47;27.10;1.00
573;DHT22;271;51.114;13.780;2023-07-13T15:07:08;27.00;1.00
573;DHT22;271;51.114;13.780;2023-07-13T15:09:57;26.80;1.00
573;DHT22;271;51.114;13.780;2023-07-13T15:12:45;26.70;1.00
573;DHT22;271;51.114;13.780;2023-07-13T15:15:34;26.60;1.00
573;DHT22;271;51.114;13.780;2023-07-13T15:18:24;26.70;1.00
573;DHT22;271;51.114;13.780;2023-07-13T15:21:17;26.70;1.00
573;DHT22;271;51.114;13.780;2023-07-13T15:24:09;26.70;1.00
573;DHT22;271;51.114;13.780;2023-07-13T15:26:57;26.80;1.00
573;DHT22;271;51.114;13.780;2023-07-13T15:29:45;26.70;1.00
573;DHT22;271;51.114;13.780;2023-07-13T15:32:33;26.70;1.00
573;DHT22;271;51.114;13.780;2023-07-13T15:35:25;26.60;1.00
573;DHT22;271;51.114;13.780;2023-07-13T15:38:16;26.60;1.00
573;DHT22;271;51.114;13.780;2023-07-13T15:41:14;26.50;1.00
573;DHT22;271;51.114;13.780;2023-07-13T15:44:25;26.50;1.00
573;DHT22;271;51.114;13.780;2023-07-13T15:47:14;26.40;1.00
573;DHT22;271;51.114;13.780;2023-07-13T15:50:02;26.40;1.00
573;DHT22;271;51.114;13.780;2023-07-13T15:52:52;26.40;1.00
573;DHT22;271;51.114;13.780;2023-07-13T15:55:41;26.50;1.00
573;DHT22;271;51.114;13.780;2023-07-13T15:58:31;26.40;1.00
573;DHT22;271;51.114;13.780;2023-07-13T16:01:19;26.30;1.00
573;DHT22;271;51.114;13.780;2023-07-13T16:04:08;26.30;1.00
573;DHT22;271;51.114;13.780;2023-07-13T16:06:58;26.30;1.00
573;DHT22;271;51.114;13.780;2023-07-13T16:21:44;26.30;1.00
573;DHT22;271;51.114;13.780;2023-07-13T16:24:52;26.20;1.00
573;DHT22;271;51.114;13.780;2023-07-13T16:28:13;26.10;1.00
573;DHT22;271;51.114;13.780;2023-07-13T16:35:08;26.00;1.00
573;DHT22;271;51.114;13.780;2023-07-13T16:38:22;25.90;1.00
573;DHT22;271;51.114;13.780;2023-07-13T16:41:10;25.90;1.00
573;DHT22;271;51.114;13.780;2023-07-13T16:43:58;25.80;1.00
573;DHT22;271;51.114;13.780;2023-07-13T16:46:46;25.80;1.00
573;DHT22;271;51.114;13.780;2023-07-13T16:49:37;25.80;1.00
573;DHT22;271;51.114;13.780;2023-07-13T16:52:25;25.70;1.00
573;DHT22;271;51.114;13.780;2023-07-13T16:55:16;25.70;1.00
573;DHT22;271;51.114;13.780;2023-07-13T16:58:04;25.60;1.00
573;DHT22;271;51.114;13.780;2023-07-13T17:00:53;25.50;1.00
573;DHT22;271;51.114;13.780;2023-07-13T17:03:41;25.40;1.00
573;DHT22;271;51.114;13.780;2023-07-13T17:06:29;25.30;1.00
573;DHT22;271;51.114;13.780;2023-07-13T17:09:18;25.40;1.00
573;DHT22;271;51.114;13.780;2023-07-13T17:12:19;25.40;1.00
573;DHT22;271;51.114;13.780;2023-07-13T17:15:09;25.30;1.00
573;DHT22;271;51.114;13.780;2023-07-13T17:18:12;25.30;1.00
573;DHT22;271;51.114;13.780;2023-07-13T17:21:13;25.10;1.00
573;DHT22;271;51.114;13.780;2023-07-13T17:24:07;25.10;1.00
573;DHT22;271;51.114;13.780;2023-07-13T17:27:12;25.10;1.00
573;DHT22;271;51.114;13.780;2023-07-13T17:30:14;25.00;1.00
573;DHT22;271;51.114;13.780;2023-07-13T17:33:04;25.00;1.00
573;DHT22;271;51.114;13.780;2023-07-13T17:35:56;25.00;1.00
573;DHT22;271;51.114;13.780;2023-07-13T17:38:45;24.90;1.00
573;DHT22;271;51.114;13.780;2023-07-13T17:41:37;24.90;1.00
573;DHT22;271;51.114;13.780;2023-07-13T17:44:27;24.90;1.00
573;DHT22;271;51.114;13.780;2023-07-13T17:47:24;24.90;1.00
573;DHT22;271;51.114;13.780;2023-07-13T17:50:27;25.00;1.00
573;DHT22;271;51.114;13.780;2023-07-13T17:53:22;25.00;1.00
573;DHT22;271;51.114;13.780;2023-07-13T17:56:11;24.90;1.00
573;DHT22;271;51.114;13.780;2023-07-13T17:58:59;24.90;1.00
573;DHT22;271;51.114;13.780;2023-07-13T18:01:48;24.90;1.00
573;DHT22;271;51.114;13.780;2023-07-13T18:04:37;24.80;1.00
573;DHT22;271;51.114;13.780;2023-07-13T18:07:24;24.70;1.00
573;DHT22;271;51.114;13.780;2023-07-13T18:10:15;24.70;1.00
573;DHT22;271;51.114;13.780;2023-07-13T18:13:02;24.60;1.00
573;DHT22;271;51.114;13.780;2023-07-13T18:15:51;24.60;1.00
573;DHT22;271;51.114;13.780;2023-07-13T18:18:39;24.60;1.00
573;DHT22;271;51.114;13.780;2023-07-13T18:21:30;24.50;1.00
573;DHT22;271;51.114;13.780;2023-07-13T18:24:18;24.40;1.00
573;DHT22;271;51.114;13.780;2023-07-13T18:27:06;24.30;1.00
573;DHT22;271;51.114;13.780;2023-07-13T18:29:56;24.20;1.00
573;DHT22;271;51.114;13.780;2023-07-13T18:32:47;24.10;1.00
573;DHT22;271;51.114;13.780;2023-07-13T18:35:36;24.10;1.00
573;DHT22;271;51.114;13.780;2023-07-13T18:38:26;23.90;1.00
573;DHT22;271;51.114;13.780;2023-07-13T18:41:16;23.80;1.00
573;DHT22;271;51.114;13.780;2023-07-13T18:44:05;23.80;1.00
573;DHT22;271;51.114;13.780;2023-07-13T18:46:52;23.70;1.00
573;DHT22;271;51.114;13.780;2023-07-13T18:49:40;23.60;1.00
573;DHT22;271;51.114;13.780;2023-07-13T18:52:28;23.40;1.00
573;DHT22;271;51.114;13.780;2023-07-13T18:55:20;23.30;1.00
573;DHT22;271;51.114;13.780;2023-07-13T18:58:08;23.20;1.00
573;DHT22;271;51.114;13.780;2023-07-13T19:00:56;23.20;1.00
573;DHT22;271;51.114;13.780;2023-07-13T19:03:44;23.10;1.00
573;DHT22;271;51.114;13.780;2023-07-13T19:06:33;23.00;1.00
573;DHT22;271;51.114;13.780;2023-07-13T19:09:20;23.00;1.00
573;DHT22;271;51.114;13.780;2023-07-13T19:12:16;22.80;1.00
573;DHT22;271;51.114;13.780;2023-07-13T19:15:17;22.60;1.00
573;DHT22;271;51.114;13.780;2023-07-13T19:18:12;22.60;1.00
573;DHT22;271;51.114;13.780;2023-07-13T19:21:09;22.40;1.00
573;DHT22;271;51.114;13.780;2023-07-13T19:24:02;22.40;1.00
573;DHT22;271;51.114;13.780;2023-07-13T19:26:50;22.20;1.00
573;DHT22;271;51.114;13.780;2023-07-13T19:29:41;22.10;1.00
573;DHT22;271;51.114;13.780;2023-07-13T19:32:29;22.00;1.00
573;DHT22;271;51.114;13.780;2023-07-13T19:35:17;21.90;1.00